createdAt,value
2018-06-04T00:00:20.474Z,19.03
2018-06-04T00:02:49.333Z,18.80
2018-06-04T00:05:18.194Z,18.69
2018-06-04T00:07:47.025Z,18.63
2018-06-04T00:10:15.868Z,18.67
2018-06-04T00:12:44.702Z,18.68
2018-06-04T00:15:13.565Z,18.71
2018-06-04T00:17:42.394Z,18.75
2018-06-04T00:20:11.243Z,18.87
2018-06-04T00:22:40.074Z,18.94
2018-06-04T00:25:09.023Z,19.04
2018-06-04T00:27:37.855Z,19.08
2018-06-04T00:30:06.695Z,19.19
2018-06-04T00:32:35.538Z,19.24
2018-06-04T00:35:04.416Z,19.34
2018-06-04T00:37:33.288Z,19.40
2018-06-04T00:40:02.143Z,19.45
2018-06-04T00:42:30.959Z,19.49
2018-06-04T00:44:59.819Z,19.52
2018-06-04T00:47:28.639Z,19.83
2018-06-04T00:49:57.499Z,19.71
2018-06-04T00:52:26.333Z,20.04
2018-06-04T00:54:55.206Z,19.82
2018-06-04T00:57:24.022Z,19.74
2018-06-04T00:59:52.871Z,19.73
2018-06-04T01:02:21.688Z,19.75
2018-06-04T01:04:50.581Z,19.75
2018-06-04T01:07:19.425Z,19.74
2018-06-04T01:09:48.256Z,19.71
2018-06-04T01:12:17.088Z,19.74
2018-06-04T01:14:45.945Z,19.73
2018-06-04T01:17:14.785Z,19.76
2018-06-04T01:19:43.601Z,19.78
2018-06-04T01:22:12.460Z,19.77
2018-06-04T01:24:41.293Z,19.76
2018-06-04T01:27:10.149Z,19.77
2018-06-04T01:29:39.032Z,19.76
2018-06-04T01:32:07.879Z,19.74
2018-06-04T01:34:36.720Z,19.74
2018-06-04T01:37:05.563Z,19.75
2018-06-04T01:39:34.400Z,19.75
2018-06-04T01:42:03.273Z,19.74
2018-06-04T01:44:32.114Z,19.70
2018-06-04T01:47:00.968Z,19.69
2018-06-04T01:49:29.809Z,19.64
2018-06-04T01:51:58.706Z,19.65
2018-06-04T01:54:27.566Z,19.60
2018-06-04T01:56:56.461Z,19.60
2018-06-04T01:59:25.260Z,19.61
2018-06-04T02:01:54.132Z,19.61
2018-06-04T02:04:22.987Z,19.59
2018-06-04T02:06:51.822Z,19.60
2018-06-04T02:09:20.702Z,19.60
2018-06-04T02:11:49.558Z,19.61
2018-06-04T02:14:18.378Z,19.64
2018-06-04T02:16:47.302Z,19.63
2018-06-04T02:19:16.266Z,19.85
2018-06-04T02:21:45.122Z,19.69
2018-06-04T02:24:13.951Z,19.67
2018-06-04T02:26:42.814Z,19.66
2018-06-04T02:29:11.671Z,19.65
2018-06-04T02:31:40.535Z,19.61
2018-06-04T02:34:09.404Z,19.60
2018-06-04T02:36:38.284Z,19.53
2018-06-04T02:39:07.796Z,19.47
2018-06-04T02:41:36.665Z,19.42
2018-06-04T02:44:05.533Z,19.42
2018-06-04T02:46:34.398Z,19.42
2018-06-04T02:49:03.294Z,19.43
2018-06-04T02:51:32.124Z,19.38
2018-06-04T02:54:02.293Z,19.35
2018-06-04T02:56:31.153Z,19.33
2018-06-04T02:59:00.011Z,19.35
2018-06-04T03:01:28.856Z,19.36
2018-06-04T03:03:57.702Z,19.33
2018-06-04T03:06:26.567Z,19.35
2018-06-04T03:08:55.412Z,19.29
2018-06-04T03:11:24.252Z,19.30
2018-06-04T03:13:53.109Z,19.28
2018-06-04T03:16:21.954Z,19.29
2018-06-04T03:18:50.811Z,19.27
2018-06-04T03:21:19.646Z,19.30
2018-06-04T03:23:48.497Z,19.25
2018-06-04T03:26:17.342Z,19.24
2018-06-04T03:28:46.163Z,19.26
2018-06-04T03:31:15.027Z,19.30
2018-06-04T03:33:43.843Z,19.30
2018-06-04T03:36:12.696Z,19.27
2018-06-04T03:38:41.532Z,19.27
2018-06-04T03:41:10.370Z,19.27
2018-06-04T03:43:39.198Z,19.29
2018-06-04T03:46:08.066Z,19.29
2018-06-04T03:48:36.896Z,19.26
2018-06-04T03:51:05.733Z,19.24
2018-06-04T03:53:34.625Z,19.41
2018-06-04T03:56:03.458Z,19.28
2018-06-04T03:58:32.286Z,19.27
2018-06-04T04:01:01.098Z,19.30
2018-06-04T04:03:29.948Z,19.30
2018-06-04T04:05:58.766Z,19.27
2018-06-04T04:08:27.617Z,19.29
2018-06-04T04:10:56.432Z,19.29
2018-06-04T04:13:25.404Z,19.53
2018-06-04T04:15:54.235Z,19.37
2018-06-04T04:18:23.077Z,19.39
2018-06-04T04:20:51.915Z,19.42
2018-06-04T04:23:20.742Z,19.60
2018-06-04T04:25:49.613Z,19.43
2018-06-04T04:28:18.437Z,19.45
2018-06-04T04:30:47.291Z,19.43
2018-06-04T04:33:16.102Z,19.39
2018-06-04T04:35:44.970Z,19.38
2018-06-04T04:38:13.982Z,19.39
2018-06-04T04:40:42.787Z,19.37
2018-06-04T04:43:11.650Z,19.36
2018-06-04T04:45:40.538Z,19.36
2018-06-04T04:48:09.394Z,19.34
2018-06-04T04:50:38.224Z,19.36
2018-06-04T04:53:07.055Z,19.35
2018-06-04T04:55:35.905Z,19.35
2018-06-04T04:58:04.793Z,19.36
2018-06-04T05:00:33.604Z,19.34
2018-06-04T05:03:02.492Z,19.28
2018-06-04T05:05:31.347Z,19.56
2018-06-04T05:08:00.212Z,19.71
2018-06-04T05:10:29.059Z,19.52
2018-06-04T05:12:57.876Z,19.51
2018-06-04T05:15:26.732Z,19.51
2018-06-04T05:17:55.651Z,19.45
2018-06-04T05:20:24.538Z,19.46
2018-06-04T05:22:53.372Z,19.47
2018-06-04T05:25:22.218Z,19.48
2018-06-04T05:27:51.167Z,19.53
2018-06-04T05:30:20.058Z,19.52
2018-06-04T05:32:48.892Z,19.55
2018-06-04T05:35:17.773Z,19.58
2018-06-04T05:37:46.660Z,19.51
2018-06-04T05:40:15.519Z,19.57
2018-06-04T05:42:44.383Z,19.59
2018-06-04T05:45:13.232Z,19.63
2018-06-04T05:47:42.085Z,19.62
2018-06-04T05:50:10.920Z,19.67
2018-06-04T05:52:39.808Z,19.70
2018-06-04T05:55:08.688Z,19.75
2018-06-04T05:57:37.542Z,19.76
2018-06-04T06:00:06.372Z,19.79
2018-06-04T06:02:35.267Z,19.61
2018-06-04T06:05:04.107Z,19.72
2018-06-04T06:07:32.947Z,19.77
2018-06-04T06:10:01.829Z,19.77
2018-06-04T06:12:30.711Z,19.89
2018-06-04T06:14:59.530Z,19.96
2018-06-04T06:17:28.373Z,20.04
2018-06-04T06:19:57.239Z,20.06
2018-06-04T06:22:26.074Z,20.22
2018-06-04T06:24:54.928Z,20.12
2018-06-04T06:27:23.750Z,20.40
2018-06-04T06:29:52.608Z,20.34
2018-06-04T06:32:21.443Z,20.32
2018-06-04T06:34:50.321Z,20.37
2018-06-04T06:37:19.162Z,20.39
2018-06-04T06:39:47.994Z,20.42
2018-06-04T06:42:16.890Z,20.35
2018-06-04T06:44:45.737Z,20.37
2018-06-04T06:47:14.681Z,20.33
2018-06-04T06:49:43.541Z,20.39
2018-06-04T06:52:12.473Z,20.40
2018-06-04T06:54:41.368Z,20.60
2018-06-04T06:57:10.252Z,20.52
2018-06-04T06:59:39.127Z,20.54
2018-06-04T07:02:08.012Z,20.50
2018-06-04T07:04:36.900Z,20.52
2018-06-04T07:07:05.876Z,20.57
2018-06-04T07:09:34.847Z,20.52
2018-06-04T07:12:03.732Z,20.50
2018-06-04T07:14:32.669Z,20.52
2018-06-04T07:17:01.539Z,20.56
2018-06-04T07:19:30.422Z,20.57
2018-06-04T07:21:59.349Z,20.64
2018-06-04T07:24:28.203Z,20.69
2018-06-04T07:26:57.068Z,20.75
2018-06-04T07:29:25.928Z,20.82
2018-06-04T07:31:54.792Z,20.84
2018-06-04T07:34:23.798Z,20.78
2018-06-04T07:36:52.631Z,20.80
2018-06-04T07:39:21.492Z,20.74
2018-06-04T07:41:50.489Z,20.68
2018-06-04T07:44:19.366Z,20.58
2018-06-04T07:46:48.210Z,20.70
2018-06-04T07:49:17.052Z,20.77
2018-06-04T07:51:45.939Z,20.82
2018-06-04T07:54:14.824Z,20.93
2018-06-04T07:56:43.755Z,21.03
2018-06-04T07:59:12.572Z,21.14
2018-06-04T08:01:41.410Z,21.25
2018-06-04T08:04:10.241Z,21.52
2018-06-04T08:06:39.150Z,21.40
2018-06-04T08:09:08.307Z,21.57
2018-06-04T08:11:37.168Z,21.42
2018-06-04T08:14:06.233Z,21.45
2018-06-04T08:16:35.223Z,21.50
2018-06-04T08:19:04.046Z,21.54
2018-06-04T08:21:33.007Z,21.57
2018-06-04T08:24:02.037Z,21.61
2018-06-04T08:26:31.270Z,21.75
2018-06-04T08:29:00.410Z,21.80
2018-06-04T08:31:29.279Z,21.89
2018-06-04T08:33:58.376Z,21.90
2018-06-04T08:36:30.474Z,21.90
2018-06-04T08:38:59.450Z,21.96
2018-06-04T08:41:28.336Z,21.98
2018-06-04T08:43:57.210Z,21.97
2018-06-04T08:46:28.052Z,21.96
2018-06-04T08:48:57.082Z,21.94
2018-06-04T08:51:28.895Z,21.92
2018-06-04T08:54:03.620Z,21.98
2018-06-04T08:56:38.034Z,21.98
2018-06-04T08:59:10.058Z,21.92
2018-06-04T09:01:39.131Z,21.80
2018-06-04T09:04:10.027Z,21.83
2018-06-04T09:06:40.728Z,21.87
2018-06-04T09:09:08.134Z,22.00
2018-06-04T09:11:37.224Z,22.13
2018-06-04T09:14:06.079Z,22.13
2018-06-04T09:16:35.169Z,22.17
2018-06-04T09:19:04.954Z,22.20
2018-06-04T09:21:33.835Z,22.20
2018-06-04T09:24:02.732Z,22.19
2018-06-04T09:26:31.825Z,22.18
2018-06-04T09:29:01.142Z,22.16
2018-06-04T09:31:30.024Z,22.16
2018-06-04T09:33:58.966Z,22.17
2018-06-04T09:36:27.952Z,22.12
2018-06-04T09:38:56.876Z,22.13
2018-06-04T09:41:25.739Z,22.22
2018-06-04T09:43:54.596Z,22.26
2018-06-04T09:46:23.442Z,22.48
2018-06-04T09:48:52.510Z,22.36
2018-06-04T09:51:21.416Z,22.43
2018-06-04T09:53:50.347Z,22.69
2018-06-04T09:56:19.415Z,22.74
2018-06-04T09:58:48.383Z,22.84
2018-06-04T10:01:17.337Z,22.77
2018-06-04T10:03:49.231Z,22.91
2018-06-04T10:06:18.068Z,22.86
2018-06-04T10:08:46.938Z,22.86
2018-06-04T10:11:16.210Z,23.01
2018-06-04T10:13:45.064Z,23.15
2018-06-04T10:16:13.933Z,23.33
2018-06-04T10:18:45.862Z,23.50
2018-06-04T10:40:11.801Z,23.76
2018-06-04T10:42:40.624Z,23.55
2018-06-04T10:45:09.521Z,23.48
2018-06-04T10:47:41.259Z,23.47
2018-06-04T10:50:10.429Z,23.59
2018-06-04T10:52:39.368Z,23.64
2018-06-04T10:55:08.210Z,23.67
2018-06-04T10:57:37.112Z,23.66
2018-06-04T11:00:05.990Z,23.63
2018-06-04T11:02:34.913Z,23.58
2018-06-04T11:05:03.714Z,23.60
2018-06-04T11:07:32.581Z,23.62
2018-06-04T11:10:02.905Z,23.60
2018-06-04T11:12:31.790Z,23.52
2018-06-04T11:15:00.824Z,23.60
2018-06-04T11:17:29.696Z,23.69
2018-06-04T11:19:58.551Z,23.86
2018-06-04T11:22:27.459Z,24.02
2018-06-04T11:24:56.346Z,24.09
2018-06-04T11:27:25.230Z,24.14
2018-06-04T11:29:54.236Z,24.13
2018-06-04T11:32:23.083Z,24.16
2018-06-04T11:34:51.919Z,24.22
2018-06-04T11:37:20.778Z,24.37
2018-06-04T11:39:49.621Z,24.67
2018-06-04T11:42:18.463Z,25.11
2018-06-04T11:44:47.327Z,25.35
2018-06-04T11:47:16.339Z,25.40
2018-06-04T11:49:45.226Z,25.72
2018-06-04T11:52:14.055Z,25.96
2018-06-04T11:54:42.878Z,26.10
2018-06-04T11:57:11.745Z,26.41
2018-06-04T11:59:40.587Z,26.63
2018-06-04T12:02:09.602Z,26.63
2018-06-04T12:04:38.711Z,26.52
2018-06-04T12:07:09.024Z,26.30
2018-06-04T12:09:38.038Z,26.21
2018-06-04T12:12:07.058Z,26.28
2018-06-04T12:14:36.343Z,26.50
2018-06-04T12:17:05.300Z,26.68
2018-06-04T12:19:34.494Z,26.65
2018-06-04T12:22:03.380Z,26.87
2018-06-04T12:24:32.276Z,26.68
2018-06-04T12:27:01.176Z,26.52
2018-06-04T12:29:30.286Z,26.63
2018-06-04T12:31:59.199Z,26.71
2018-06-04T12:34:28.066Z,26.76
2018-06-04T12:36:56.993Z,26.99
2018-06-04T12:39:25.820Z,27.21
2018-06-04T12:41:54.669Z,27.32
2018-06-04T12:44:23.501Z,27.39
2018-06-04T12:46:52.380Z,27.43
2018-06-04T12:49:21.224Z,27.26
2018-06-04T12:51:50.076Z,27.23
2018-06-04T12:54:19.157Z,27.03
2018-06-04T12:56:48.251Z,26.82
2018-06-04T12:59:17.117Z,26.82
2018-06-04T13:01:46.123Z,26.89
2018-06-04T13:04:15.030Z,26.95
2018-06-04T13:06:43.899Z,26.94
2018-06-04T13:09:12.934Z,27.13
2018-06-04T13:11:41.824Z,27.22
2018-06-04T13:14:10.791Z,27.37
2018-06-04T13:16:39.729Z,27.50
2018-06-04T13:19:08.574Z,27.51
2018-06-04T13:21:37.647Z,27.57
2018-06-04T13:24:06.531Z,27.86
2018-06-04T13:26:35.396Z,28.00
2018-06-04T13:29:04.285Z,27.95
2018-06-04T13:31:33.248Z,28.08
2018-06-04T13:34:02.189Z,27.89
2018-06-04T13:36:31.008Z,27.64
2018-06-04T13:38:59.864Z,27.31
2018-06-04T13:41:28.693Z,27.15
2018-06-04T13:43:57.536Z,27.13
2018-06-04T13:46:28.903Z,27.14
2018-06-04T13:48:57.752Z,27.22
2018-06-04T13:51:26.652Z,27.24
2018-06-04T13:53:55.576Z,27.22
2018-06-04T13:56:24.566Z,27.43
2018-06-04T13:58:53.505Z,27.46
2018-06-04T14:01:22.369Z,27.46
2018-06-04T14:03:51.293Z,27.62
2018-06-04T14:06:20.082Z,27.60
2018-06-04T14:08:48.985Z,27.41
2018-06-04T14:11:18.700Z,27.34
2018-06-04T14:13:47.500Z,27.48
2018-06-04T14:16:16.378Z,27.34
2018-06-04T14:18:45.203Z,27.26
2018-06-04T14:21:14.037Z,27.19
2018-06-04T14:23:42.882Z,27.19
2018-06-04T14:26:11.730Z,27.15
2018-06-04T14:28:40.567Z,27.03
2018-06-04T14:31:09.472Z,27.04
2018-06-04T14:33:38.384Z,27.15
2018-06-04T14:36:07.201Z,27.13
2018-06-04T14:38:36.088Z,27.04
2018-06-04T14:41:04.947Z,26.98
2018-06-04T14:43:33.821Z,26.95
2018-06-04T14:46:02.683Z,27.15
2018-06-04T14:48:31.946Z,27.09
2018-06-04T14:51:00.867Z,26.85
2018-06-04T14:53:29.929Z,26.75
2018-06-04T14:55:58.905Z,26.63
2018-06-04T14:58:27.816Z,26.55
2018-06-04T15:00:56.763Z,26.45
2018-06-04T15:03:25.739Z,26.52
2018-06-04T15:05:54.766Z,26.31
2018-06-04T15:08:23.744Z,26.32
2018-06-04T15:10:52.666Z,26.40
2018-06-04T15:13:21.619Z,26.35
2018-06-04T15:15:50.564Z,26.34
2018-06-04T15:18:19.558Z,26.29
2018-06-04T15:20:48.402Z,26.16
2018-06-04T15:23:17.273Z,25.92
2018-06-04T15:25:46.115Z,25.88
2018-06-04T15:28:14.938Z,25.88
2018-06-04T15:30:43.757Z,25.96
2018-06-04T15:33:12.649Z,26.01
2018-06-04T15:35:41.471Z,25.92
2018-06-04T15:38:10.315Z,25.76
2018-06-04T15:40:39.183Z,25.72
2018-06-04T15:43:08.021Z,25.77
2018-06-04T15:45:36.890Z,25.85
2018-06-04T15:48:05.736Z,25.98
2018-06-04T15:50:34.578Z,26.05
2018-06-04T15:53:03.414Z,25.99
2018-06-04T15:55:32.245Z,25.89
2018-06-04T15:58:01.103Z,25.88
2018-06-04T16:00:29.965Z,25.87
2018-06-04T16:02:58.801Z,25.77
2018-06-04T16:05:27.909Z,25.65
2018-06-04T16:07:57.023Z,25.65
2018-06-04T16:10:25.877Z,25.59
2018-06-04T16:12:54.736Z,25.56
2018-06-04T16:15:23.565Z,25.63
2018-06-04T16:17:52.409Z,25.55
2018-06-04T16:20:21.249Z,25.46
2018-06-04T16:22:50.084Z,25.41
2018-06-04T16:25:18.930Z,25.31
2018-06-04T16:27:47.804Z,25.26
2018-06-04T16:30:16.674Z,25.14
2018-06-04T16:32:45.542Z,25.10
2018-06-04T16:35:14.384Z,24.97
2018-06-04T16:37:43.260Z,24.71
2018-06-04T16:40:12.107Z,24.68
2018-06-04T16:42:40.956Z,24.62
2018-06-04T16:45:09.832Z,24.50
2018-06-04T16:47:38.650Z,24.35
2018-06-04T16:50:07.566Z,24.16
2018-06-04T16:52:36.384Z,24.02
2018-06-04T16:55:05.277Z,23.96
2018-06-04T16:57:34.083Z,23.95
2018-06-04T17:00:02.969Z,23.89
2018-06-04T17:02:31.816Z,23.94
2018-06-04T17:05:00.658Z,23.96
2018-06-04T17:07:29.530Z,23.85
2018-06-04T17:09:58.408Z,23.82
2018-06-04T17:12:27.315Z,23.75
2018-06-04T17:14:56.134Z,23.71
2018-06-04T17:17:24.993Z,23.65
2018-06-04T17:19:53.853Z,23.58
2018-06-04T17:22:22.728Z,23.51
2018-06-04T17:24:51.578Z,23.41
2018-06-04T17:27:20.452Z,23.35
2018-06-04T17:29:49.326Z,23.16
2018-06-04T17:32:18.170Z,23.17
2018-06-04T17:34:47.040Z,23.04
2018-06-04T17:37:15.918Z,22.87
2018-06-04T17:39:44.762Z,22.87
2018-06-04T17:42:13.592Z,22.89
2018-06-04T17:44:42.464Z,22.87
2018-06-04T17:47:11.296Z,22.75
2018-06-04T17:49:40.161Z,22.60
2018-06-04T17:52:09.006Z,22.61
2018-06-04T17:54:37.872Z,22.54
2018-06-04T17:57:06.707Z,22.44
2018-06-04T17:59:35.603Z,22.38
2018-06-04T18:02:04.468Z,22.28
2018-06-04T18:04:33.282Z,22.17
2018-06-04T18:07:02.149Z,22.12
2018-06-04T18:09:30.981Z,22.08
2018-06-04T18:11:59.843Z,22.07
2018-06-04T18:14:28.707Z,21.99
2018-06-04T18:16:57.554Z,21.86
2018-06-04T18:19:29.233Z,21.72
2018-06-04T18:21:58.099Z,21.73
2018-06-04T18:24:26.962Z,21.48
2018-06-04T18:26:55.839Z,21.43
2018-06-04T18:29:24.658Z,21.29
2018-06-04T18:31:53.628Z,21.20
2018-06-04T18:34:22.653Z,21.04
2018-06-04T18:36:51.533Z,21.05
2018-06-04T18:39:20.435Z,21.17
2018-06-04T18:41:49.274Z,21.05
2018-06-04T18:44:18.107Z,21.04
2018-06-04T18:46:46.944Z,21.04
2018-06-04T18:49:15.810Z,21.09
2018-06-04T18:51:44.634Z,21.10
2018-06-04T18:54:13.509Z,21.00
2018-06-04T18:56:42.332Z,21.07
2018-06-04T18:59:11.190Z,21.00
2018-06-04T19:01:40.024Z,20.99
2018-06-04T19:04:08.897Z,20.93
2018-06-04T19:06:37.788Z,20.90
2018-06-04T19:09:09.004Z,20.87
2018-06-04T19:11:38.158Z,20.84
2018-06-04T19:14:06.987Z,21.00
2018-06-04T19:16:35.837Z,20.83
2018-06-04T19:19:04.715Z,20.78
2018-06-04T19:21:33.584Z,20.76
2018-06-04T19:24:02.421Z,20.71
2018-06-04T19:26:31.274Z,20.67
2018-06-04T19:29:00.118Z,20.66
2018-06-04T19:31:28.977Z,20.60
2018-06-04T19:33:57.868Z,20.58
2018-06-04T19:36:26.709Z,20.52
2018-06-04T19:38:55.548Z,20.66
2018-06-04T19:41:24.415Z,20.53
2018-06-04T19:43:53.248Z,20.50
2018-06-04T19:46:23.685Z,20.43
2018-06-04T19:48:52.518Z,20.64
2018-06-04T19:51:21.392Z,20.46
2018-06-04T19:53:50.236Z,20.44
2018-06-04T19:56:19.091Z,20.45
2018-06-04T19:58:47.937Z,20.41
2018-06-04T20:01:16.775Z,20.37
2018-06-04T20:03:45.662Z,20.32
2018-06-04T20:06:14.502Z,20.30
2018-06-04T20:08:43.323Z,20.26
2018-06-04T20:11:12.153Z,20.24
2018-06-04T20:13:40.997Z,20.20
2018-06-04T20:16:09.835Z,20.16
2018-06-04T20:18:38.678Z,20.32
2018-06-04T20:21:07.514Z,20.11
2018-06-04T20:23:36.374Z,20.07
2018-06-04T20:26:05.245Z,20.01
2018-06-04T20:28:34.103Z,20.04
2018-06-04T20:31:02.956Z,20.06
2018-06-04T20:33:31.799Z,20.05
2018-06-04T20:36:00.624Z,20.04
2018-06-04T20:38:29.493Z,20.01
2018-06-04T20:40:58.347Z,20.01
2018-06-04T20:43:27.206Z,20.00
2018-06-04T20:45:56.041Z,20.15
2018-06-04T20:48:24.886Z,19.99
2018-06-04T20:50:53.737Z,19.96
2018-06-04T20:53:22.592Z,19.94
2018-06-04T20:55:51.459Z,19.92
2018-06-04T20:58:20.281Z,19.87
2018-06-04T21:00:49.150Z,19.81
2018-06-04T21:03:18.013Z,19.75
2018-06-04T21:05:46.851Z,19.77
2018-06-04T21:08:15.684Z,19.67
2018-06-04T21:10:44.548Z,19.63
2018-06-04T21:13:13.410Z,19.67
2018-06-04T21:15:42.271Z,19.82
2018-06-04T21:18:11.121Z,19.86
2018-06-04T21:20:39.976Z,19.68
2018-06-04T21:23:08.810Z,19.65
2018-06-04T21:25:37.656Z,19.63
2018-06-04T21:28:06.500Z,19.62
2018-06-04T21:30:35.332Z,19.78
2018-06-04T21:33:04.185Z,19.64
2018-06-04T21:35:33.019Z,19.65
2018-06-04T21:38:01.864Z,19.63
2018-06-04T21:40:30.705Z,19.63
2018-06-04T21:42:59.563Z,19.56
2018-06-04T21:45:28.405Z,19.57
2018-06-04T21:47:57.271Z,19.53
2018-06-04T21:50:26.088Z,19.48
2018-06-04T21:52:54.947Z,19.48
2018-06-04T21:55:23.793Z,19.51
2018-06-04T21:57:52.643Z,19.52
2018-06-04T22:00:21.495Z,19.43
2018-06-04T22:02:50.309Z,19.43
2018-06-04T22:05:19.159Z,19.41
2018-06-04T22:07:48.004Z,19.60
2018-06-04T22:10:16.838Z,19.73
2018-06-04T22:12:45.690Z,19.58
2018-06-04T22:15:14.549Z,19.56
2018-06-04T22:17:43.391Z,19.48
2018-06-04T22:20:12.229Z,19.66
2018-06-04T22:22:41.107Z,19.48
2018-06-04T22:25:09.939Z,19.49
2018-06-04T22:27:38.801Z,19.45
2018-06-04T22:30:07.641Z,19.42
2018-06-04T22:32:36.497Z,19.63
2018-06-04T22:35:05.532Z,19.45
2018-06-04T22:37:34.395Z,19.39
2018-06-04T22:40:03.269Z,19.27
2018-06-04T22:42:32.100Z,19.25
2018-06-04T22:45:00.948Z,19.27
2018-06-04T22:47:29.789Z,19.30
2018-06-04T22:49:58.639Z,19.46
2018-06-04T22:52:27.523Z,19.28
2018-06-04T22:54:56.431Z,19.22
2018-06-04T22:57:25.277Z,19.19
2018-06-04T22:59:54.113Z,19.16
2018-06-04T23:02:22.987Z,19.15
2018-06-04T23:04:51.896Z,19.15
2018-06-04T23:07:20.737Z,19.12
2018-06-04T23:09:49.581Z,19.05
2018-06-04T23:12:18.417Z,19.01
2018-06-04T23:14:47.237Z,18.97
2018-06-04T23:17:16.105Z,19.00
2018-06-04T23:19:44.921Z,18.94
2018-06-04T23:22:13.788Z,19.11
2018-06-04T23:24:42.650Z,18.94
2018-06-04T23:27:11.491Z,18.90
2018-06-04T23:29:40.338Z,18.89
2018-06-04T23:32:09.168Z,18.88
2018-06-04T23:34:38.034Z,18.83
2018-06-04T23:37:06.856Z,18.84
2018-06-04T23:39:35.715Z,18.80
2018-06-04T23:42:04.543Z,18.84
2018-06-04T23:44:33.394Z,18.82
2018-06-04T23:47:02.208Z,18.79
2018-06-04T23:49:31.109Z,18.97
2018-06-04T23:51:59.991Z,18.83
2018-06-04T23:54:28.866Z,18.78
2018-06-04T23:56:57.774Z,18.77
2018-06-04T23:59:26.626Z,18.73
